sensor_id;sensor_type;location;lat;lon;timestamp;pressure;altitude;pressure_sealevel;temperature;humidity
12949;BME280;6539;49.476;8.484;2023-04-02T00:01:24;99714.94;;;11.99;78.37
12949;BME280;6539;49.476;8.484;2023-04-02T00:09:23;99723.25;;;11.95;79.40
12949;BME280;6539;49.476;8.484;2023-04-02T00:11:51;99717.91;;;11.88;79.40
12949;BME280;6539;49.476;8.484;2023-04-02T00:14:31;99725.75;;;11.90;79.13
12949;BME280;6539;49.476;8.484;2023-04-02T00:17:06;99733.91;;;11.93;78.67
12949;BME280;6539;49.476;8.484;2023-04-02T00:19:59;99737.53;;;11.90;78.72
12949;BME280;6539;49.476;8.484;2023-04-02T00:22:30;99732.09;;;11.87;79.18
12949;BME280;6539;49.476;8.484;2023-04-02T00:25:06;99737.69;;;11.83;79.38
12949;BME280;6539;49.476;8.484;2023-04-02T00:27:36;99740.34;;;11.87;79.83
12949;BME280;6539;49.476;8.484;2023-04-02T00:30:03;99746.28;;;11.85;79.39
12949;BME280;6539;49.476;8.484;2023-04-02T00:32:32;99744.72;;;11.84;79.11
12949;BME280;6539;49.476;8.484;2023-04-02T00:35:00;99747.81;;;11.86;78.78
12949;BME280;6539;49.476;8.484;2023-04-02T00:37:30;99748.59;;;11.87;79.02
12949;BME280;6539;49.476;8.484;2023-04-02T00:40:23;99748.59;;;11.87;79.44
12949;BME280;6539;49.476;8.484;2023-04-02T00:42:53;99752.56;;;11.86;79.17
12949;BME280;6539;49.476;8.484;2023-04-02T00:45:29;99748.69;;;11.83;79.59
12949;BME280;6539;49.476;8.484;2023-04-02T00:47:59;99748.69;;;11.83;79.37
12949;BME280;6539;49.476;8.484;2023-04-02T00:50:41;99750.50;;;11.74;79.99
12949;BME280;6539;49.476;8.484;2023-04-02T00:53:26;99753.78;;;11.69;80.53
12949;BME280;6539;49.476;8.484;2023-04-02T00:55:54;99747.50;;;11.68;80.07
12949;BME280;6539;49.476;8.484;2023-04-02T00:58:27;99747.50;;;11.68;79.82
12949;BME280;6539;49.476;8.484;2023-04-02T01:00:58;99749.03;;;11.69;79.43
12949;BME280;6539;49.476;8.484;2023-04-02T01:08:59;99761.28;;;11.65;80.03
12949;BME280;6539;49.476;8.484;2023-04-02T01:14:29;99762.03;;;11.69;79.73
12949;BME280;6539;49.476;8.484;2023-04-02T01:23:18;99763.34;;;11.61;80.37
12949;BME280;6539;49.476;8.484;2023-04-02T01:29:13;99769.75;;;11.54;80.38
12949;BME280;6539;49.476;8.484;2023-04-02T01:31:45;99785.56;;;11.50;80.25
12949;BME280;6539;49.476;8.484;2023-04-02T01:34:18;99777.47;;;11.43;80.59
12949;BME280;6539;49.476;8.484;2023-04-02T01:37:07;99777.75;;;11.48;80.62
12949;BME280;6539;49.476;8.484;2023-04-02T01:45:26;99793.91;;;11.46;80.51
12949;BME280;6539;49.476;8.484;2023-04-02T01:47:53;99791.94;;;11.47;80.90
12949;BME280;6539;49.476;8.484;2023-04-02T01:50:32;99793.47;;;11.48;80.93
12949;BME280;6539;49.476;8.484;2023-04-02T01:53:11;99801.00;;;11.44;80.97
12949;BME280;6539;49.476;8.484;2023-04-02T01:55:44;99804.81;;;11.50;81.04
12949;BME280;6539;49.476;8.484;2023-04-02T01:58:16;99793.66;;;11.57;80.50
12949;BME280;6539;49.476;8.484;2023-04-02T02:01:00;99799.66;;;11.52;80.65
12949;BME280;6539;49.476;8.484;2023-04-02T02:03:27;99794.44;;;11.58;80.58
12949;BME280;6539;49.476;8.484;2023-04-02T02:05:53;99801.13;;;11.57;80.31
12949;BME280;6539;49.476;8.484;2023-04-02T02:08:46;99805.47;;;11.38;81.25
12949;BME280;6539;49.476;8.484;2023-04-02T02:11:21;99804.13;;;11.26;81.74
12949;BME280;6539;49.476;8.484;2023-04-02T02:14:08;99808.00;;;11.29;82.56
12949;BME280;6539;49.476;8.484;2023-04-02T02:16:38;99806.81;;;11.30;82.08
12949;BME280;6539;49.476;8.484;2023-04-02T02:19:19;99809.47;;;11.33;82.04
12949;BME280;6539;49.476;8.484;2023-04-02T02:24:44;99810.19;;;11.18;82.79
12949;BME280;6539;49.476;8.484;2023-04-02T02:29:52;99823.44;;;11.23;83.23
12949;BME280;6539;49.476;8.484;2023-04-02T02:32:27;99823.84;;;11.21;82.88
12949;BME280;6539;49.476;8.484;2023-04-02T02:35:09;99819.84;;;11.26;82.49
12949;BME280;6539;49.476;8.484;2023-04-02T02:37:43;99827.25;;;11.29;82.38
12949;BME280;6539;49.476;8.484;2023-04-02T02:40:19;99823.38;;;11.26;82.71
12949;BME280;6539;49.476;8.484;2023-04-02T02:42:57;99827.03;;;11.20;83.12
12949;BME280;6539;49.476;8.484;2023-04-02T02:45:32;99826.69;;;11.18;83.46
12949;BME280;6539;49.476;8.484;2023-04-02T02:48:01;99841.81;;;11.26;83.13
12949;BME280;6539;49.476;8.484;2023-04-02T02:50:30;99845.41;;;11.23;82.99
12949;BME280;6539;49.476;8.484;2023-04-02T02:53:14;99852.97;;;11.19;83.02
12949;BME280;6539;49.476;8.484;2023-04-02T02:55:43;99851.75;;;11.20;83.38
12949;BME280;6539;49.476;8.484;2023-04-02T02:58:25;99852.06;;;11.25;82.80
12949;BME280;6539;49.476;8.484;2023-04-02T03:00:55;99851.75;;;11.20;83.23
12949;BME280;6539;49.476;8.484;2023-04-02T03:03:26;99855.63;;;11.22;83.49
12949;BME280;6539;49.476;8.484;2023-04-02T03:05:58;99858.38;;;11.22;83.46
12949;BME280;6539;49.476;8.484;2023-04-02T03:08:43;99861.59;;;11.17;83.55
12949;BME280;6539;49.476;8.484;2023-04-02T03:14:32;99862.59;;;11.07;84.10
12949;BME280;6539;49.476;8.484;2023-04-02T03:17:33;99866.97;;;11.05;84.54
12949;BME280;6539;49.476;8.484;2023-04-02T03:20:16;99868.75;;;11.15;84.08
12949;BME280;6539;49.476;8.484;2023-04-02T03:22:54;99872.25;;;11.15;84.22
12949;BME280;6539;49.476;8.484;2023-04-02T03:25:53;99875.53;;;11.07;84.98
12949;BME280;6539;49.476;8.484;2023-04-02T03:28:30;99879.84;;;11.08;84.78
12949;BME280;6539;49.476;8.484;2023-04-02T03:31:16;99883.38;;;11.08;85.11
12949;BME280;6539;49.476;8.484;2023-04-02T03:33:51;99889.16;;;11.14;84.28
12949;BME280;6539;49.476;8.484;2023-04-02T03:41:53;99893.75;;;11.20;84.10
12949;BME280;6539;49.476;8.484;2023-04-02T03:45:03;99901.06;;;11.27;84.40
12949;BME280;6539;49.476;8.484;2023-04-02T03:47:39;99903.69;;;11.34;83.37
12949;BME280;6539;49.476;8.484;2023-04-02T03:50:10;99903.25;;;11.35;83.07
12949;BME280;6539;49.476;8.484;2023-04-02T03:52:38;99905.94;;;11.39;83.20
12949;BME280;6539;49.476;8.484;2023-04-02T03:55:23;99913.47;;;11.35;83.17
12949;BME280;6539;49.476;8.484;2023-04-02T03:58:27;99916.56;;;11.37;83.42
12949;BME280;6539;49.476;8.484;2023-04-02T04:03:41;99924.47;;;11.35;83.58
12949;BME280;6539;49.476;8.484;2023-04-02T04:06:19;99924.81;;;11.37;83.48
12949;BME280;6539;49.476;8.484;2023-04-02T04:11:33;99924.97;;;11.30;83.79
12949;BME280;6539;49.476;8.484;2023-04-02T04:22:24;99935.19;;;11.29;83.98
12949;BME280;6539;49.476;8.484;2023-04-02T04:25:00;99940.91;;;11.38;83.79
12949;BME280;6539;49.476;8.484;2023-04-02T04:27:42;99945.63;;;11.38;83.06
12949;BME280;6539;49.476;8.484;2023-04-02T04:30:36;99938.56;;;11.37;82.92
12949;BME280;6539;49.476;8.484;2023-04-02T04:33:27;99955.81;;;11.37;82.73
12949;BME280;6539;49.476;8.484;2023-04-02T04:36:02;99965.22;;;11.40;82.41
12949;BME280;6539;49.476;8.484;2023-04-02T04:38:36;99966.75;;;11.41;82.11
12949;BME280;6539;49.476;8.484;2023-04-02T04:41:23;99967.19;;;11.39;82.39
12949;BME280;6539;49.476;8.484;2023-04-02T04:47:16;99977.47;;;11.35;82.28
12949;BME280;6539;49.476;8.484;2023-04-02T04:49:56;99981.34;;;11.38;81.68
12949;BME280;6539;49.476;8.484;2023-04-02T04:52:27;99980.63;;;11.34;81.78
12949;BME280;6539;49.476;8.484;2023-04-02T04:54:53;99984.56;;;11.33;82.12
12949;BME280;6539;49.476;8.484;2023-04-02T04:57:35;99992.34;;;11.38;82.20
12949;BME280;6539;49.476;8.484;2023-04-02T05:00:26;99993.13;;;11.38;81.92
12949;BME280;6539;49.476;8.484;2023-04-02T05:02:59;99994.22;;;11.41;82.21
12949;BME280;6539;49.476;8.484;2023-04-02T05:05:31;99995.78;;;11.42;81.93
12949;BME280;6539;49.476;8.484;2023-04-02T05:08:15;100002.00;;;11.46;80.98
12949;BME280;6539;49.476;8.484;2023-04-02T05:11:02;100013.00;;;11.46;81.57
12949;BME280;6539;49.476;8.484;2023-04-02T05:13:48;100011.06;;;11.43;81.41
12949;BME280;6539;49.476;8.484;2023-04-02T05:19:15;100018.97;;;11.41;81.45
12949;BME280;6539;49.476;8.484;2023-04-02T05:21:59;100029.91;;;11.44;81.34
12949;BME280;6539;49.476;8.484;2023-04-02T05:24:52;100027.09;;;11.48;81.17
12949;BME280;6539;49.476;8.484;2023-04-02T05:27:52;100038.00;;;11.51;81.00
12949;BME280;6539;49.476;8.484;2023-04-02T05:33:01;100039.94;;;11.55;80.90
12949;BME280;6539;49.476;8.484;2023-04-02T05:35:40;100049.75;;;11.56;80.63
12949;BME280;6539;49.476;8.484;2023-04-02T05:38:21;100052.84;;;11.58;80.69
12949;BME280;6539;49.476;8.484;2023-04-02T05:41:17;100052.84;;;11.58;80.18
12949;BME280;6539;49.476;8.484;2023-04-02T05:43:48;100053.31;;;11.52;80.36
12949;BME280;6539;49.476;8.484;2023-04-02T05:46:27;100061.09;;;11.58;79.97
12949;BME280;6539;49.476;8.484;2023-04-02T05:48:58;100061.50;;;11.56;79.59
12949;BME280;6539;49.476;8.484;2023-04-02T05:51:42;100073.81;;;11.48;80.17
12949;BME280;6539;49.476;8.484;2023-04-02T05:54:33;100070.13;;;11.35;81.26
12949;BME280;6539;49.476;8.484;2023-04-02T05:57:13;100078.78;;;11.33;81.52
12949;BME280;6539;49.476;8.484;2023-04-02T05:59:52;100072.31;;;11.43;81.12
12949;BME280;6539;49.476;8.484;2023-04-02T06:02:29;100081.81;;;11.39;81.09
12949;BME280;6539;49.476;8.484;2023-04-02T06:05:23;100085.19;;;11.27;82.12
12949;BME280;6539;49.476;8.484;2023-04-02T06:08:04;100085.06;;;11.34;82.67
12949;BME280;6539;49.476;8.484;2023-04-02T06:10:43;100097.25;;;11.33;82.58
12949;BME280;6539;49.476;8.484;2023-04-02T06:13:15;100097.69;;;11.28;82.74
12949;BME280;6539;49.476;8.484;2023-04-02T06:15:42;100101.72;;;11.23;82.89
12949;BME280;6539;49.476;8.484;2023-04-02T06:18:18;100119.75;;;11.24;82.97
12949;BME280;6539;49.476;8.484;2023-04-02T06:20:45;100108.75;;;11.24;83.91
12949;BME280;6539;49.476;8.484;2023-04-02T06:23:23;100107.06;;;11.34;83.66
12949;BME280;6539;49.476;8.484;2023-04-02T06:26:10;100110.97;;;11.33;83.57
12949;BME280;6539;49.476;8.484;2023-04-02T06:28:44;100116.94;;;11.28;84.64
12949;BME280;6539;49.476;8.484;2023-04-02T06:31:39;100120.44;;;11.32;84.39
12949;BME280;6539;49.476;8.484;2023-04-02T06:34:19;100123.47;;;11.37;84.38
12949;BME280;6539;49.476;8.484;2023-04-02T06:36:49;100122.69;;;11.37;84.57
12949;BME280;6539;49.476;8.484;2023-04-02T06:39:22;100137.63;;;11.36;84.68
12949;BME280;6539;49.476;8.484;2023-04-02T06:42:12;100135.25;;;11.38;85.08
12949;BME280;6539;49.476;8.484;2023-04-02T06:44:41;100141.81;;;11.44;84.46
12949;BME280;6539;49.476;8.484;2023-04-02T06:47:31;100150.13;;;11.40;84.16
12949;BME280;6539;49.476;8.484;2023-04-02T06:52:49;100161.16;;;11.37;85.09
12949;BME280;6539;49.476;8.484;2023-04-02T06:55:35;100166.63;;;11.40;84.68
12949;BME280;6539;49.476;8.484;2023-04-02T06:58:05;100167.75;;;11.43;84.96
12949;BME280;6539;49.476;8.484;2023-04-02T07:00:40;100176.25;;;11.52;83.89
12949;BME280;6539;49.476;8.484;2023-04-02T07:03:22;100182.94;;;11.51;84.50
12949;BME280;6539;49.476;8.484;2023-04-02T07:05:50;100177.81;;;11.53;83.71
12949;BME280;6539;49.476;8.484;2023-04-02T07:08:19;100174.56;;;11.58;83.67
12949;BME280;6539;49.476;8.484;2023-04-02T07:10:45;100180.81;;;11.62;83.81
12949;BME280;6539;49.476;8.484;2023-04-02T07:13:16;100190.16;;;11.68;83.96
12949;BME280;6539;49.476;8.484;2023-04-02T07:15:45;100191.88;;;11.82;82.50
12949;BME280;6539;49.476;8.484;2023-04-02T07:18:28;100195.16;;;11.73;82.59
12949;BME280;6539;49.476;8.484;2023-04-02T07:20:54;100206.06;;;11.80;82.36
12949;BME280;6539;49.476;8.484;2023-04-02T07:23:26;100208.88;;;11.77;82.51
12949;BME280;6539;49.476;8.484;2023-04-02T07:25:55;100208.34;;;11.85;82.17
12949;BME280;6539;49.476;8.484;2023-04-02T07:28:22;100212.16;;;11.91;81.64
12949;BME280;6539;49.476;8.484;2023-04-02T07:30:49;100215.72;;;11.92;81.08
12949;BME280;6539;49.476;8.484;2023-04-02T07:33:26;100216.50;;;11.92;81.01
12949;BME280;6539;49.476;8.484;2023-04-02T07:35:56;100231.31;;;11.98;81.02
12949;BME280;6539;49.476;8.484;2023-04-02T07:38:22;100237.53;;;12.02;80.69
12949;BME280;6539;49.476;8.484;2023-04-02T07:40:49;100238.00;;;11.97;80.69
12949;BME280;6539;49.476;8.484;2023-04-02T07:43:14;100243.84;;;11.99;80.23
12949;BME280;6539;49.476;8.484;2023-04-02T07:45:43;100248.22;;;11.97;80.31
12949;BME280;6539;49.476;8.484;2023-04-02T07:48:12;100253.63;;;12.04;80.74
12949;BME280;6539;49.476;8.484;2023-04-02T07:50:38;100254.75;;;12.06;80.44
12949;BME280;6539;49.476;8.484;2023-04-02T07:53:03;100257.88;;;12.08;80.40
12949;BME280;6539;49.476;8.484;2023-04-02T07:55:34;100264.81;;;12.16;80.67
12949;BME280;6539;49.476;8.484;2023-04-02T07:58:04;100264.09;;;12.12;80.39
12949;BME280;6539;49.476;8.484;2023-04-02T08:00:30;100267.63;;;12.13;80.67
12949;BME280;6539;49.476;8.484;2023-04-02T08:02:56;100264.81;;;12.16;79.87
12949;BME280;6539;49.476;8.484;2023-04-02T08:05:22;100271.50;;;12.15;80.20
12949;BME280;6539;49.476;8.484;2023-04-02T08:07:55;100280.00;;;12.24;80.15
12949;BME280;6539;49.476;8.484;2023-04-02T08:10:21;100283.22;;;12.19;79.44
12949;BME280;6539;49.476;8.484;2023-04-02T08:12:50;100283.72;;;12.38;79.82
12949;BME280;6539;49.476;8.484;2023-04-02T08:15:16;100290.88;;;12.32;79.69
12949;BME280;6539;49.476;8.484;2023-04-02T08:17:42;100288.56;;;12.30;79.69
12949;BME280;6539;49.476;8.484;2023-04-02T08:20:18;100288.09;;;12.35;79.62
12949;BME280;6539;49.476;8.484;2023-04-02T08:22:48;100291.13;;;12.41;78.38
12949;BME280;6539;49.476;8.484;2023-04-02T08:25:18;100296.34;;;12.35;79.19
12949;BME280;6539;49.476;8.484;2023-04-02T08:27:47;100302.91;;;12.41;79.26
12949;BME280;6539;49.476;8.484;2023-04-02T08:30:17;100300.81;;;12.49;78.79
12949;BME280;6539;49.476;8.484;2023-04-02T08:32:44;100309.38;;;12.54;78.39
12949;BME280;6539;49.476;8.484;2023-04-02T08:35:15;100314.81;;;12.58;78.32
12949;BME280;6539;49.476;8.484;2023-04-02T08:37:43;100320.97;;;12.65;77.94
12949;BME280;6539;49.476;8.484;2023-04-02T08:40:24;100324.38;;;12.73;78.00
12949;BME280;6539;49.476;8.484;2023-04-02T08:46:08;100336.47;;;12.79;77.04
12949;BME280;6539;49.476;8.484;2023-04-02T08:48:43;100335.69;;;12.78;76.51
12949;BME280;6539;49.476;8.484;2023-04-02T08:51:27;100341.22;;;12.78;76.84
12949;BME280;6539;49.476;8.484;2023-04-02T08:54:02;100344.31;;;12.80;76.85
12949;BME280;6539;49.476;8.484;2023-04-02T08:56:42;100340.34;;;12.81;76.73
12949;BME280;6539;49.476;8.484;2023-04-02T08:59:35;100350.09;;;12.86;76.50
12949;BME280;6539;49.476;8.484;2023-04-02T09:04:55;100358.38;;;12.86;75.65
12949;BME280;6539;49.476;8.484;2023-04-02T09:07:25;100355.56;;;12.89;75.83
12949;BME280;6539;49.476;8.484;2023-04-02T09:09:54;100369.75;;;12.88;75.49
12949;BME280;6539;49.476;8.484;2023-04-02T09:12:29;100372.09;;;12.89;75.44
12949;BME280;6539;49.476;8.484;2023-04-02T09:18:17;100378.09;;;12.84;74.36
12949;BME280;6539;49.476;8.484;2023-04-02T09:20:46;100377.78;;;12.79;74.86
12949;BME280;6539;49.476;8.484;2023-04-02T09:23:19;100379.63;;;12.85;74.83
12949;BME280;6539;49.476;8.484;2023-04-02T09:25:50;100384.25;;;12.92;74.67
12949;BME280;6539;49.476;8.484;2023-04-02T09:28:18;100393.00;;;12.87;74.82
12949;BME280;6539;49.476;8.484;2023-04-02T09:33:50;100396.09;;;13.12;74.90
12949;BME280;6539;49.476;8.484;2023-04-02T09:36:38;100405.03;;;13.20;74.12
12949;BME280;6539;49.476;8.484;2023-04-02T09:39:19;100404.88;;;13.27;73.37
12949;BME280;6539;49.476;8.484;2023-04-02T09:41:47;100407.72;;;13.23;72.86
12949;BME280;6539;49.476;8.484;2023-04-02T09:44:20;100406.38;;;13.31;73.15
12949;BME280;6539;49.476;8.484;2023-04-02T09:46:57;100417.19;;;13.42;72.78
12949;BME280;6539;49.476;8.484;2023-04-02T09:49:31;100414.66;;;13.51;71.99
12949;BME280;6539;49.476;8.484;2023-04-02T09:55:09;100425.03;;;13.63;71.30
12949;BME280;6539;49.476;8.484;2023-04-02T09:57:48;100428.44;;;13.70;71.09
12949;BME280;6539;49.476;8.484;2023-04-02T10:00:18;100436.16;;;13.79;70.50
12949;BME280;6539;49.476;8.484;2023-04-02T10:03:10;100435.13;;;13.89;70.63
12949;BME280;6539;49.476;8.484;2023-04-02T10:05:46;100439.16;;;14.04;70.13
12949;BME280;6539;49.476;8.484;2023-04-02T10:08:24;100441.66;;;14.15;69.63
12949;BME280;6539;49.476;8.484;2023-04-02T10:11:01;100439.78;;;14.31;69.24
12949;BME280;6539;49.476;8.484;2023-04-02T10:16:20;100455.00;;;14.56;67.49
12949;BME280;6539;49.476;8.484;2023-04-02T10:21:25;100462.31;;;14.78;66.68
12949;BME280;6539;49.476;8.484;2023-04-02T10:23:56;100471.31;;;14.82;66.64
12949;BME280;6539;49.476;8.484;2023-04-02T10:35:10;100488.53;;;14.38;68.50
12949;BME280;6539;49.476;8.484;2023-04-02T10:37:56;100487.91;;;14.30;68.55
12949;BME280;6539;49.476;8.484;2023-04-02T10:51:40;100513.19;;;13.70;71.75
12949;BME280;6539;49.476;8.484;2023-04-02T11:03:03;100532.41;;;13.31;74.12
12949;BME280;6539;49.476;8.484;2023-04-02T11:11:02;100540.88;;;13.20;74.69
12949;BME280;6539;49.476;8.484;2023-04-02T11:13:46;100537.75;;;13.18;74.47
12949;BME280;6539;49.476;8.484;2023-04-02T11:16:19;100551.19;;;13.16;74.41
12949;BME280;6539;49.476;8.484;2023-04-02T11:42:54;100581.34;;;13.00;74.91
12949;BME280;6539;49.476;8.484;2023-04-02T11:50:38;100597.53;;;12.98;74.50
12949;BME280;6539;49.476;8.484;2023-04-02T11:55:42;100606.34;;;12.86;75.06
12949;BME280;6539;49.476;8.484;2023-04-02T12:10:17;100622.66;;;12.73;76.82
12949;BME280;6539;49.476;8.484;2023-04-02T12:12:49;100625.88;;;12.68;77.11
12949;BME280;6539;49.476;8.484;2023-04-02T12:15:46;100637.75;;;12.62;77.92
12949;BME280;6539;49.476;8.484;2023-04-02T12:18:22;100638.97;;;12.61;78.39
12949;BME280;6539;49.476;8.484;2023-04-02T12:20:52;100634.25;;;12.61;78.90
12949;BME280;6539;49.476;8.484;2023-04-02T12:23:32;100647.53;;;12.66;78.65
12949;BME280;6539;49.476;8.484;2023-04-02T12:26:31;100654.34;;;12.58;79.14
12949;BME280;6539;49.476;8.484;2023-04-02T12:29:25;100655.13;;;12.59;79.54
12949;BME280;6539;49.476;8.484;2023-04-02T12:31:56;100655.94;;;12.56;79.49
12949;BME280;6539;49.476;8.484;2023-04-02T12:34:26;100670.41;;;12.63;79.37
12949;BME280;6539;49.476;8.484;2023-04-02T12:36:58;100670.38;;;12.67;79.09
12949;BME280;6539;49.476;8.484;2023-04-02T12:39:25;100677.44;;;12.68;78.38
12949;BME280;6539;49.476;8.484;2023-04-02T12:41:51;100679.84;;;12.66;78.57
12949;BME280;6539;49.476;8.484;2023-04-02T12:44:21;100683.75;;;12.65;78.37
12949;BME280;6539;49.476;8.484;2023-04-02T12:46:50;100686.97;;;12.60;77.59
12949;BME280;6539;49.476;8.484;2023-04-02T12:49:33;100693.22;;;12.64;77.48
12949;BME280;6539;49.476;8.484;2023-04-02T12:52:09;100696.34;;;12.66;77.46
12949;BME280;6539;49.476;8.484;2023-04-02T12:54:53;100696.72;;;12.68;76.86
12949;BME280;6539;49.476;8.484;2023-04-02T12:57:31;100701.03;;;12.69;76.40
12949;BME280;6539;49.476;8.484;2023-04-02T13:08:40;100708.00;;;12.77;73.00
12949;BME280;6539;49.476;8.484;2023-04-02T13:11:07;100715.81;;;12.82;72.11
12949;BME280;6539;49.476;8.484;2023-04-02T13:13:39;100709.50;;;12.85;71.38
12949;BME280;6539;49.476;8.484;2023-04-02T13:18:48;100715.97;;;12.71;69.48
12949;BME280;6539;49.476;8.484;2023-04-02T13:23:48;100720.19;;;12.46;69.21
12949;BME280;6539;49.476;8.484;2023-04-02T13:29:26;100736.34;;;12.44;69.63
12949;BME280;6539;49.476;8.484;2023-04-02T13:31:59;100731.25;;;12.39;69.21
12949;BME280;6539;49.476;8.484;2023-04-02T13:34:26;100739.56;;;12.35;69.12
12949;BME280;6539;49.476;8.484;2023-04-02T13:36:52;100741.53;;;12.35;69.33
12949;BME280;6539;49.476;8.484;2023-04-02T13:39:18;100735.97;;;12.38;69.62
12949;BME280;6539;49.476;8.484;2023-04-02T13:41:58;100741.44;;;12.45;69.05
12949;BME280;6539;49.476;8.484;2023-04-02T13:44:34;100741.34;;;12.52;69.27
12949;BME280;6539;49.476;8.484;2023-04-02T13:47:02;100747.28;;;12.51;69.06
12949;BME280;6539;49.476;8.484;2023-04-02T13:49:28;100755.53;;;12.51;68.52
12949;BME280;6539;49.476;8.484;2023-04-02T13:51:59;100755.97;;;12.46;67.86
12949;BME280;6539;49.476;8.484;2023-04-02T13:54:50;100757.63;;;12.40;67.49
12949;BME280;6539;49.476;8.484;2023-04-02T13:57:21;100764.34;;;12.35;67.49
12949;BME280;6539;49.476;8.484;2023-04-02T13:59:47;100775.00;;;12.30;67.68
12949;BME280;6539;49.476;8.484;2023-04-02T14:02:16;100776.22;;;12.29;67.81
12949;BME280;6539;49.476;8.484;2023-04-02T14:11:16;100787.69;;;12.20;66.93
12949;BME280;6539;49.476;8.484;2023-04-02T14:14:17;100798.28;;;12.21;67.20
12949;BME280;6539;49.476;8.484;2023-04-02T14:16:54;100803.00;;;12.21;65.85
12949;BME280;6539;49.476;8.484;2023-04-02T14:31:42;100814.84;;;12.14;68.63
12949;BME280;6539;49.476;8.484;2023-04-02T14:43:18;100840.00;;;12.16;69.02
12949;BME280;6539;49.476;8.484;2023-04-02T14:45:57;100840.81;;;12.13;69.05
12949;BME280;6539;49.476;8.484;2023-04-02T14:48:42;100845.88;;;12.18;68.55
12949;BME280;6539;49.476;8.484;2023-04-02T14:51:36;100852.19;;;12.19;68.36
12949;BME280;6539;49.476;8.484;2023-04-02T14:57:10;100860.09;;;12.10;67.83
12949;BME280;6539;49.476;8.484;2023-04-02T14:59:51;100874.31;;;12.01;67.71
12949;BME280;6539;49.476;8.484;2023-04-02T15:05:32;100873.97;;;11.96;67.65
12949;BME280;6539;49.476;8.484;2023-04-02T15:16:20;100890.06;;;12.01;66.28
12949;BME280;6539;49.476;8.484;2023-04-02T15:18:54;100890.47;;;11.96;66.47
12949;BME280;6539;49.476;8.484;2023-04-02T15:24:25;100901.63;;;11.61;67.27
12949;BME280;6539;49.476;8.484;2023-04-02T15:27:39;100908.69;;;11.58;67.64
12949;BME280;6539;49.476;8.484;2023-04-02T15:30:19;100917.34;;;11.57;67.26
12949;BME280;6539;49.476;8.484;2023-04-02T15:32:50;100916.63;;;11.49;66.86
12949;BME280;6539;49.476;8.484;2023-04-02T15:38:16;100921.75;;;11.33;67.33
12949;BME280;6539;49.476;8.484;2023-04-02T15:41:13;100919.81;;;11.26;67.07
12949;BME280;6539;49.476;8.484;2023-04-02T15:52:11;100936.31;;;11.19;67.32
12949;BME280;6539;49.476;8.484;2023-04-02T16:04:37;100955.22;;;11.00;66.99
12949;BME280;6539;49.476;8.484;2023-04-02T16:07:33;100959.13;;;10.95;67.16
12949;BME280;6539;49.476;8.484;2023-04-02T16:10:35;100966.97;;;10.86;66.62
12949;BME280;6539;49.476;8.484;2023-04-02T16:13:29;100962.25;;;10.83;66.54
12949;BME280;6539;49.476;8.484;2023-04-02T16:16:25;100968.94;;;10.86;66.72
12949;BME280;6539;49.476;8.484;2023-04-02T16:22:11;100985.81;;;10.88;65.77
12949;BME280;6539;49.476;8.484;2023-04-02T16:24:40;100984.25;;;10.83;65.96
12949;BME280;6539;49.476;8.484;2023-04-02T16:27:39;100988.97;;;10.76;65.17
12949;BME280;6539;49.476;8.484;2023-04-02T16:30:42;100994.84;;;10.70;65.58
12949;BME280;6539;49.476;8.484;2023-04-02T16:33:29;100999.16;;;10.64;65.30
12949;BME280;6539;49.476;8.484;2023-04-02T16:39:54;101009.75;;;10.62;65.15
12949;BME280;6539;49.476;8.484;2023-04-02T16:43:05;101017.56;;;10.60;64.89
12949;BME280;6539;49.476;8.484;2023-04-02T16:49:08;101038.34;;;10.51;65.25
12949;BME280;6539;49.476;8.484;2023-04-02T16:55:07;101045.44;;;10.77;69.92
12949;BME280;6539;49.476;8.484;2023-04-02T17:00:55;101056.84;;;10.86;64.54
12949;BME280;6539;49.476;8.484;2023-04-02T17:03:54;101056.84;;;10.93;64.73
12949;BME280;6539;49.476;8.484;2023-04-02T17:12:50;101074.50;;;10.85;63.47
12949;BME280;6539;49.476;8.484;2023-04-02T17:15:25;101082.31;;;10.83;63.85
12949;BME280;6539;49.476;8.484;2023-04-02T17:17:59;101083.91;;;10.80;63.28
12949;BME280;6539;49.476;8.484;2023-04-02T17:20:26;101089.41;;;10.84;63.04
12949;BME280;6539;49.476;8.484;2023-04-02T17:22:53;101098.03;;;10.86;63.67
12949;BME280;6539;49.476;8.484;2023-04-02T17:25:29;101107.47;;;10.85;63.41
12949;BME280;6539;49.476;8.484;2023-04-02T17:28:00;101112.13;;;10.81;62.76
12949;BME280;6539;49.476;8.484;2023-04-02T17:30:42;101118.03;;;10.76;63.78
12949;BME280;6539;49.476;8.484;2023-04-02T17:33:14;101130.22;;;10.78;65.37
12949;BME280;6539;49.476;8.484;2023-04-02T17:39:27;101145.06;;;10.66;62.28
12949;BME280;6539;49.476;8.484;2023-04-02T17:45:22;101150.44;;;10.42;61.38
12949;BME280;6539;49.476;8.484;2023-04-02T18:05:27;101190.16;;;9.97;60.59
12949;BME280;6539;49.476;8.484;2023-04-02T18:11:30;101199.06;;;9.83;60.82
12949;BME280;6539;49.476;8.484;2023-04-02T18:28:35;101241.59;;;9.63;60.25
12949;BME280;6539;49.476;8.484;2023-04-02T18:37:35;101264.66;;;9.59;59.03
12949;BME280;6539;49.476;8.484;2023-04-02T18:43:05;101279.94;;;9.60;58.57
12949;BME280;6539;49.476;8.484;2023-04-02T18:45:53;101282.25;;;9.54;58.53
12949;BME280;6539;49.476;8.484;2023-04-02T18:48:54;101295.16;;;9.54;58.55
12949;BME280;6539;49.476;8.484;2023-04-02T18:51:28;101300.63;;;9.54;58.48
12949;BME280;6539;49.476;8.484;2023-04-02T18:54:35;101308.75;;;9.43;58.14
12949;BME280;6539;49.476;8.484;2023-04-02T18:57:22;101316.97;;;9.43;58.15
12949;BME280;6539;49.476;8.484;2023-04-02T19:00:05;101309.53;;;9.44;57.94
12949;BME280;6539;49.476;8.484;2023-04-02T19:02:46;101327.94;;;9.43;58.23
12949;BME280;6539;49.476;8.484;2023-04-02T19:07:58;101332.19;;;9.41;57.72
12949;BME280;6539;49.476;8.484;2023-04-02T19:10:37;101336.13;;;9.40;57.66
12949;BME280;6539;49.476;8.484;2023-04-02T19:13:17;101343.94;;;9.41;57.62
12949;BME280;6539;49.476;8.484;2023-04-02T19:16:24;101349.84;;;9.43;57.87
12949;BME280;6539;49.476;8.484;2023-04-02T19:19:19;101354.13;;;9.41;57.55
12949;BME280;6539;49.476;8.484;2023-04-02T19:33:42;101394.19;;;9.49;57.75
12949;BME280;6539;49.476;8.484;2023-04-02T19:42:45;101397.41;;;9.58;57.43